Accueil
METAR-TAF:

METAR-TAF

Aéroports :

Landivisiau, France

Base aérienne

latitude: 48-31N, longitude: 004-09W, altitude: 106 m

Observation

Le bulletin a été fait il y a 24 minutes, à 09:30 UTC
Vent 10 kt de sud-ouest
Température 18°C
Humidité 94%
Pression 1016 hPa
Visibilité 10 km ou plus
Nuages épars à une hauteur de 900 ft
Nuages fragmentés à une hauteur de 1500 ft
Nuages fragmentés à une hauteur de 2700 ft

METAR: LFRJ 170930Z AUTO 23010KT 9999 SCT009 BKN015 BKN027 18/17 Q1016

Heure: 11:54 (09:54 UTC)


TAF: absent

Observations et prévisions météorologiques de plus de 4000 aéroports (messages METAR et TAF).

Les stations disponibles sont représentées par des disques jaunes et rouges sur la carte.

Passer la souris dessus pour voir le nom de la station.

Cliquer dessus pour voir les observations et prévisions météorologiques.

Pour changer de carte: cliquez sur les boutons verts avec une croix noire pour zoomer, sur le bouton vert avec un tiret pour effectuer un zoom arrière, ou sur les flèches vertes pour les cartes adjacentes.


METAR-TAF: